Time;durP1;ratioP1;P1;durP2;ratioP2;P2;SDS_P1;SDS_P2;PMS_P1;PMS_P2;Temp;Humidity;BMP_temperature;BMP_pressure;BME280_temperature;BME280_humidity;BME280_pressure;Samples;Min_cycle;Max_cycle;Signal;HPM_P1;HPM_P2
2021/04/29 00:01:52;;;;;;;9.50;3.30;;;14.80;31.00;;;;;;5033425;28;20064;-87
2021/04/29 00:07:42;;;;;;;10.00;4.43;;;14.70;31.30;;;;;;5045866;28;20090;-87
2021/04/29 00:13:31;;;;;;;8.73;3.90;;;14.50;31.30;;;;;;5047264;28;20036;-86
2021/04/29 00:19:19;;;;;;;11.55;4.10;;;14.40;31.50;;;;;;5045188;28;20054;-87
2021/04/29 00:25:11;;;;;;;7.00;3.30;;;14.50;31.90;;;;;;5034447;28;20067;-87
2021/04/29 00:30:59;;;;;;;8.45;4.10;;;14.40;31.90;;;;;;5032852;28;20028;-88
2021/04/29 00:36:49;;;;;;;10.05;4.43;;;14.40;32.30;;;;;;5032896;28;20103;-87
2021/04/29 00:42:39;;;;;;;8.30;3.80;;;14.40;32.50;;;;;;5032812;28;20447;-86
2021/04/29 00:48:28;;;;;;;10.60;4.40;;;14.30;32.40;;;;;;5032751;28;20054;-85
2021/04/29 00:54:16;;;;;;;8.63;4.20;;;14.20;32.60;;;;;;5032508;28;20068;-85
2021/04/29 01:04:05;;;;;;;9.18;4.45;;;14.10;32.80;;;;;;5032378;28;20063;-87
2021/04/29 01:10:27;;;;;;;10.32;4.65;;;14.10;33.10;;;;;;5032365;28;20131;-86
2021/04/29 01:16:20;;;;;;;8.65;4.40;;;14.20;33.30;;;;;;5031827;28;20059;-86
2021/04/29 01:22:11;;;;;;;8.73;3.97;;;14.20;33.30;;;;;;5031849;28;20032;-86
2021/04/29 01:28:00;;;;;;;8.75;4.15;;;14.10;33.50;;;;;;5031982;28;20079;-86
2021/04/29 01:33:51;;;;;;;8.48;4.45;;;14.10;33.60;;;;;;5031838;28;20045;-87
2021/04/29 01:39:40;;;;;;;9.30;4.22;;;14.10;33.70;;;;;;5031830;28;20037;-86
2021/04/29 01:45:29;;;;;;;8.38;3.80;;;14.00;33.90;;;;;;5031407;28;20040;-86
2021/04/29 01:51:20;;;;;;;8.20;4.18;;;14.00;34.00;;;;;;5031496;28;20037;-86
2021/04/29 01:57:09;;;;;;;8.60;4.00;;;14.00;34.10;;;;;;5031330;28;20149;-87
2021/04/29 02:06:59;;;;;;;9.00;4.50;;;13.90;34.20;;;;;;5031503;28;20515;-87
2021/04/29 02:12:54;;;;;;;11.10;4.57;;;13.80;34.40;;;;;;5031269;28;20091;-87
2021/04/29 02:18:49;;;;;;;11.05;4.10;;;13.80;34.50;;;;;;5030928;28;20553;-88
2021/04/29 02:24:38;;;;;;;8.77;4.10;;;13.70;34.60;;;;;;5031146;28;20496;-85
2021/04/29 02:30:27;;;;;;;7.85;3.70;;;13.70;34.60;;;;;;5031015;28;20075;-85
2021/04/29 02:36:16;;;;;;;9.48;4.13;;;13.50;34.50;;;;;;5030669;28;20120;-86
2021/04/29 02:42:05;;;;;;;7.53;3.75;;;13.40;34.80;;;;;;5030659;28;20546;-85
2021/04/29 02:47:55;;;;;;;11.15;4.70;;;13.30;34.90;;;;;;5030871;28;20032;-86
2021/04/29 02:53:43;;;;;;;8.27;4.20;;;13.20;35.00;;;;;;5030800;28;20040;-86
2021/04/29 02:59:31;;;;;;;10.30;4.57;;;13.10;35.10;;;;;;5030622;28;20045;-88
2021/04/29 03:09:20;;;;;;;9.52;4.60;;;13.00;35.30;;;;;;5030661;28;20053;-86
2021/04/29 03:15:10;;;;;;;8.50;4.45;;;13.00;35.50;;;;;;5030558;28;20455;-87
2021/04/29 03:20:59;;;;;;;9.95;4.68;;;13.00;35.70;;;;;;5030472;28;20090;-86
2021/04/29 03:26:48;;;;;;;10.65;4.72;;;13.00;35.80;;;;;;5030328;28;20051;-87
2021/04/29 03:32:36;;;;;;;9.82;4.80;;;13.00;36.00;;;;;;5030318;28;20081;-87
2021/04/29 03:38:25;;;;;;;9.23;4.63;;;13.10;36.40;;;;;;5030022;28;20553;-87
2021/04/29 03:44:14;;;;;;;10.25;3.67;;;13.20;36.40;;;;;;5031709;28;20083;-85
2021/04/29 03:50:04;;;;;;;6.85;3.22;;;13.30;36.60;;;;;;5033467;28;20090;-84
2021/04/29 03:55:52;;;;;;;7.07;3.78;;;13.40;36.90;;;;;;5033107;28;20136;-86
2021/04/29 04:01:41;;;;;;;8.75;3.50;;;13.40;36.90;;;;;;5032966;28;20025;-87
2021/04/29 04:11:23;;;;;;;8.43;3.20;;;13.50;37.00;;;;;;5033291;28;20048;-88
2021/04/29 04:17:12;;;;;;;6.65;3.13;;;13.60;37.50;;;;;;5036372;28;20044;-87
2021/04/29 04:23:00;;;;;;;7.93;3.05;;;13.60;37.40;;;;;;5044730;28;20057;-86
2021/04/29 04:28:49;;;;;;;6.53;3.30;;;13.70;37.50;;;;;;5039757;28;20037;-87
2021/04/29 04:34:37;;;;;;;6.53;3.10;;;13.70;37.90;;;;;;5037499;28;20078;-86
2021/04/29 04:40:27;;;;;;;11.32;4.85;;;13.80;38.20;;;;;;5033048;28;20117;-86
2021/04/29 04:46:16;;;;;;;6.25;2.95;;;13.90;38.60;;;;;;5032403;28;20381;-87
2021/04/29 04:52:04;;;;;;;4.70;2.00;;;14.10;38.80;;;;;;5032461;28;20066;-87
2021/04/29 04:57:53;;;;;;;2.90;1.70;;;14.10;39.20;;;;;;5032178;28;20196;-87
2021/04/29 05:03:41;;;;;;;4.78;2.20;;;14.20;39.30;;;;;;5032350;28;20098;-86
2021/04/29 05:13:25;;;;;;;4.57;1.83;;;14.30;39.70;;;;;;5032095;28;20089;-86
2021/04/29 05:19:13;;;;;;;5.20;2.15;;;14.30;40.00;;;;;;5031985;28;20488;-85
2021/04/29 05:25:03;;;;;;;3.25;1.85;;;14.30;40.40;;;;;;5031920;28;20044;-84
2021/04/29 05:30:52;;;;;;;4.47;2.10;;;14.40;40.50;;;;;;5032337;28;20032;-85
2021/04/29 05:36:41;;;;;;;2.45;1.50;;;14.60;41.10;;;;;;5031718;28;20149;-85
2021/04/29 05:42:29;;;;;;;4.00;2.05;;;14.70;41.00;;;;;;5031906;28;20556;-87
2021/04/29 05:48:18;;;;;;;3.90;2.10;;;14.60;40.90;;;;;;5031728;28;20045;-86
2021/04/29 05:54:06;;;;;;;5.82;2.10;;;14.60;42.00;;;;;;5031553;28;20396;-86
2021/04/29 05:59:56;;;;;;;4.30;2.05;;;15.00;41.80;;;;;;5031547;28;20036;-88
2021/04/29 06:05:45;;;;;;;7.32;2.45;;;15.00;41.80;;;;;;5031266;28;20546;-86
2021/04/29 06:15:27;;;;;;;6.43;2.88;;;15.00;42.50;;;;;;5031162;28;20040;-87
2021/04/29 06:21:15;;;;;;;5.82;2.60;;;15.30;43.20;;;;;;5031044;28;20054;-87
2021/04/29 06:27:04;;;;;;;4.85;2.50;;;15.40;43.10;;;;;;5031108;28;20071;-87
2021/04/29 06:32:52;;;;;;;5.15;2.33;;;15.30;43.40;;;;;;5031069;28;20045;-86
2021/04/29 06:38:41;;;;;;;3.10;1.73;;;15.20;43.80;;;;;;5030723;28;20040;-88
2021/04/29 06:44:30;;;;;;;2.55;1.63;;;15.20;44.00;;;;;;5030893;28;20066;-85
2021/04/29 06:50:19;;;;;;;2.35;1.38;;;15.10;44.10;;;;;;5030834;28;20222;-86
2021/04/29 06:56:07;;;;;;;4.70;2.10;;;15.00;44.10;;;;;;5030722;28;20098;-87
2021/04/29 07:01:55;;;;;;;4.80;2.50;;;15.20;45.50;;;;;;5030411;28;20072;-88
2021/04/29 07:07:44;;;;;;;5.10;2.38;;;15.60;45.10;;;;;;5030357;28;20112;-85
2021/04/29 07:17:26;;;;;;;4.20;2.30;;;15.70;45.00;;;;;;5030330;28;20140;-86
2021/04/29 07:23:15;;;;;;;6.63;3.10;;;15.80;45.40;;;;;;5033947;28;20095;-90
2021/04/29 07:29:05;;;;;;;7.57;3.08;;;15.60;45.10;;;;;;5033531;28;20028;-89
2021/04/29 07:34:54;;;;;;;6.78;3.20;;;15.70;45.80;;;;;;5033852;28;20131;-86
2021/04/29 07:40:42;;;;;;;4.90;2.60;;;16.00;46.40;;;;;;5033405;28;20051;-86
2021/04/29 07:46:32;;;;;;;6.40;2.75;;;16.20;46.00;;;;;;5033500;28;20066;-86
2021/04/29 07:52:22;;;;;;;4.35;2.20;;;16.40;45.90;;;;;;5033505;28;20052;-86
2021/04/29 07:58:10;;;;;;;4.40;2.30;;;16.40;46.10;;;;;;5033817;28;20137;-86
2021/04/29 08:04:01;;;;;;;3.65;1.80;;;16.50;46.30;;;;;;5033376;28;20476;-85
2021/04/29 08:09:50;;;;;;;4.72;2.45;;;16.60;46.20;;;;;;5033082;28;20028;-87
2021/04/29 08:19:34;;;;;;;4.00;1.98;;;16.50;46.20;;;;;;5033160;28;20471;-87
2021/04/29 08:25:22;;;;;;;6.40;2.78;;;16.80;46.00;;;;;;5032925;28;20041;-86
2021/04/29 08:31:11;;;;;;;6.38;2.75;;;17.00;46.40;;;;;;5033198;28;20056;-85
2021/04/29 08:36:59;;;;;;;7.50;2.85;;;17.00;45.90;;;;;;5035536;28;20083;-86
2021/04/29 08:42:48;;;;;;;7.43;2.88;;;17.20;46.50;;;;;;5035770;28;20032;-85
2021/04/29 08:48:38;;;;;;;5.90;2.95;;;17.20;45.70;;;;;;5033553;28;20076;-87
2021/04/29 08:54:26;;;;;;;4.38;2.33;;;17.30;46.30;;;;;;5032507;28;20097;-86
2021/04/29 09:00:16;;;;;;;5.63;2.65;;;17.60;46.50;;;;;;5032441;28;20066;-85
2021/04/29 09:06:05;;;;;;;6.88;2.85;;;17.90;45.90;;;;;;5033003;28;20041;-85
2021/04/29 09:11:56;;;;;;;7.00;2.75;;;17.90;45.70;;;;;;5032086;28;20079;-87
2021/04/29 09:21:38;;;;;;;6.65;3.00;;;18.20;46.60;;;;;;5032231;28;20052;-87
2021/04/29 09:27:28;;;;;;;6.22;2.67;;;18.80;46.50;;;;;;5031834;28;20075;-86
2021/04/29 09:33:17;;;;;;;7.20;2.83;;;19.10;45.70;;;;;;5031601;28;20050;-86
2021/04/29 09:39:10;;;;;;;7.50;2.40;;;19.60;46.40;;;;;;5031540;28;20523;-86
2021/04/29 09:44:59;;;;;;;4.15;2.17;;;19.40;44.90;;;;;;5031738;28;20121;-86
2021/04/29 09:50:51;;;;;;;5.30;2.47;;;18.70;44.60;;;;;;5031328;28;20135;-88
2021/04/29 09:56:39;;;;;;;5.72;2.78;;;18.90;45.70;;;;;;5031393;28;20503;-84
2021/04/29 10:02:29;;;;;;;6.15;2.88;;;19.20;45.20;;;;;;5031413;28;20377;-87
2021/04/29 10:08:23;;;;;;;7.22;3.15;;;19.30;45.40;;;;;;5031385;28;20086;-87
2021/04/29 10:14:15;;;;;;;6.47;2.80;;;19.70;45.70;;;;;;5030993;28;20029;-88
2021/04/29 10:24:05;;;;;;;6.07;2.97;;;20.60;45.60;;;;;;5031189;28;20134;-87
2021/04/29 10:30:08;;;;;;;6.03;2.88;;;20.80;44.50;;;;;;5031401;28;20067;-87
2021/04/29 10:35:59;;;;;;;5.05;2.50;;;20.60;44.10;;;;;;5030705;28;20048;-87
2021/04/29 10:42:10;;;;;;;3.10;1.80;;;20.90;44.70;;;;;;5030741;28;20031;-87
2021/04/29 10:48:10;;;;;;;7.80;3.10;;;20.70;43.50;;;;;;5030554;28;20097;-87
2021/04/29 10:54:16;;;;;;;8.27;3.58;;;20.30;43.30;;;;;;5033720;28;20103;-86
2021/04/29 11:00:08;;;;;;;4.03;2.08;;;20.50;44.10;;;;;;5033874;28;20091;-88
2021/04/29 11:06:11;;;;;;;7.15;3.53;;;20.40;43.50;;;;;;5034041;28;20438;-88
2021/04/29 11:12:05;;;;;;;7.75;3.20;;;21.00;44.90;;;;;;5034272;28;20025;-90
2021/04/29 11:18:13;;;;;;;4.10;2.25;;;21.40;44.20;;;;;;5034216;28;20048;-88
2021/04/29 11:24:01;;;;;;;4.28;2.15;;;21.10;42.40;;;;;;4994601;28;20484;-87
2021/04/29 11:29:54;;;;;;;8.38;3.20;;;21.20;43.10;;;;;;4994674;28;20076;-86
2021/04/29 11:35:43;;;;;;;7.22;3.20;;;21.00;42.10;;;;;;4994502;28;20083;-86
2021/04/29 11:41:33;;;;;;;6.45;2.90;;;21.00;43.10;;;;;;4994014;28;20405;-86
2021/04/29 11:47:21;;;;;;;4.93;2.45;;;20.80;42.40;;;;;;4994171;28;20073;-87
2021/04/29 11:53:13;;;;;;;2.83;1.58;;;20.70;42.10;;;;;;4994136;28;20033;-85
2021/04/29 11:59:02;;;;;;;7.05;2.95;;;20.30;41.00;;;;;;4993869;28;20049;-87
2021/04/29 12:04:51;;;;;;;6.22;2.90;;;19.60;40.70;;;;;;4993133;28;20122;-87
2021/04/29 12:10:54;;;;;;;9.88;3.70;;;19.10;40.70;;;;;;4993741;28;20041;-85
2021/04/29 12:16:42;;;;;;;3.92;2.15;;;18.50;40.20;;;;;;4993426;28;20393;-86
2021/04/29 12:26:36;;;;;;;3.08;1.58;;;15.50;40.10;;;;;;5032954;28;20076;-85
2021/04/29 12:32:34;;;;;;;5.10;2.55;;;14.50;46.40;;;;;;5032533;28;20400;-85
2021/04/29 12:38:31;;;;;;;10.18;3.60;;;14.30;50.70;;;;;;5032940;28;20098;-85
2021/04/29 12:44:31;;;;;;;9.30;3.88;;;14.40;54.80;;;;;;5032697;28;20032;-84
2021/04/29 12:50:20;;;;;;;7.60;3.67;;;15.00;58.20;;;;;;5032766;28;20067;-85
2021/04/29 12:56:09;;;;;;;8.77;4.20;;;15.60;59.70;;;;;;5033167;28;20116;-85
2021/04/29 13:02:06;;;;;;;10.18;3.85;;;16.40;62.90;;;;;;5033055;28;20032;-85
2021/04/29 13:07:36;;;;;;;8.60;4.10;;;17.50;63.80;;;;;;5032260;28;19912;-85
2021/04/29 13:13:32;;;;;;;8.50;3.50;;;18.00;65.60;;;;;;5032130;28;20384;-86
2021/04/29 13:19:21;;;;;;;10.75;5.25;;;18.50;66.10;;;;;;5032150;28;20032;-86
2021/04/29 13:29:10;;;;;;;7.95;3.70;;;17.20;67.50;;;;;;5032022;28;20079;-85
2021/04/29 13:35:01;;;;;;;7.40;3.47;;;16.40;67.20;;;;;;5031787;28;20087;-84
2021/04/29 13:40:49;;;;;;;5.65;2.55;;;15.70;69.40;;;;;;5031622;28;20028;-86
2021/04/29 13:46:38;;;;;;;7.53;2.80;;;15.40;71.40;;;;;;5032207;28;20127;-87
2021/04/29 13:52:26;;;;;;;4.32;2.33;;;15.40;73.30;;;;;;5031538;28;20074;-85
2021/04/29 13:58:15;;;;;;;5.90;2.55;;;15.40;73.90;;;;;;5031563;28;20118;-89
2021/04/29 14:04:03;;;;;;;6.35;2.88;;;15.50;75.50;;;;;;5031468;28;20120;-86
2021/04/29 14:09:52;;;;;;;5.90;2.95;;;15.90;77.40;;;;;;5031314;28;20078;-86
2021/04/29 14:15:40;;;;;;;7.22;3.35;;;16.20;77.60;;;;;;5031059;28;20033;-87
2021/04/29 14:21:30;;;;;;;5.13;2.65;;;16.50;78.30;;;;;;5031204;28;20121;-87
2021/04/29 14:31:14;;;;;;;5.97;2.50;;;17.10;80.60;;;;;;5031217;28;20095;-88
2021/04/29 14:37:04;;;;;;;6.93;3.17;;;17.80;80.90;;;;;;5030938;28;20507;-87
2021/04/29 14:42:54;;;;;;;7.85;3.30;;;18.30;82.70;;;;;;5030855;28;20480;-88
2021/04/29 14:48:44;;;;;;;6.88;3.28;;;18.60;80.70;;;;;;5030808;28;20128;-88
2021/04/29 14:54:33;;;;;;;7.05;3.05;;;18.40;81.20;;;;;;5030963;28;20121;-88
2021/04/29 15:00:22;;;;;;;7.53;3.40;;;18.50;82.70;;;;;;5030770;28;20078;-86
2021/04/29 15:06:11;;;;;;;6.75;3.20;;;19.00;84.70;;;;;;5030686;28;20482;-87
2021/04/29 15:11:59;;;;;;;5.93;3.20;;;22.00;97.90;;;;;;5030373;28;20029;-88
2021/04/29 15:17:50;;;;;;;5.38;2.75;;;27.70;94.70;;;;;;5030279;28;20049;-82
2021/04/29 15:23:40;;;;;;;5.13;2.70;;;30.90;92.50;;;;;;5030093;28;20032;-85
2021/04/29 15:33:30;;;;;;;5.72;2.75;;;31.50;82.40;;;;;;5030762;28;20083;-86
2021/04/29 15:39:20;;;;;;;5.75;2.95;;;31.40;84.00;;;;;;5030496;28;20079;-88
2021/04/29 15:45:13;;;;;;;5.43;2.70;;;29.40;75.30;;;;;;5033500;28;20086;-86
2021/04/29 15:51:04;;;;;;;7.30;2.83;;;27.50;81.60;;;;;;5033192;28;20510;-85
2021/04/29 15:56:53;;;;;;;9.38;2.83;;;28.40;90.10;;;;;;5033219;28;20066;-86
2021/04/29 16:02:42;;;;;;;6.72;3.25;;;29.20;81.10;;;;;;5032987;28;20047;-87
2021/04/29 16:08:32;;;;;;;8.63;2.70;;;26.80;76.20;;;;;;5032988;28;20098;-90
2021/04/29 16:14:22;;;;;;;3.03;1.92;;;25.30;78.30;;;;;;5032895;28;20075;-87
2021/04/29 16:20:11;;;;;;;4.30;2.28;;;23.90;77.50;;;;;;5032729;28;20067;-87
2021/04/29 16:26:00;;;;;;;6.53;3.20;;;22.40;78.10;;;;;;5033008;28;20128;-89
2021/04/29 16:35:50;;;;;;;7.50;2.95;;;21.00;81.20;;;;;;5032890;28;20443;-87
2021/04/29 16:41:39;;;;;;;5.28;2.33;;;21.80;90.30;;;;;;5032536;28;20081;-88
2021/04/29 16:47:28;;;;;;;5.85;2.63;;;23.30;84.90;;;;;;5032606;28;20036;-81
2021/04/29 16:53:17;;;;;;;7.05;2.88;;;22.90;81.00;;;;;;5032370;28;20078;-88
2021/04/29 16:59:07;;;;;;;5.85;2.70;;;22.20;82.10;;;;;;5034364;28;20048;-92
2021/04/29 17:04:56;;;;;;;10.05;3.45;;;22.00;82.80;;;;;;5034291;28;20452;-86
2021/04/29 17:10:46;;;;;;;6.20;3.30;;;22.10;81.70;;;;;;5032450;28;20029;-86
2021/04/29 17:16:35;;;;;;;6.55;3.20;;;21.00;78.80;;;;;;5039046;28;20033;-90
2021/04/29 17:22:23;;;;;;;3.97;2.28;;;20.00;79.50;;;;;;5032382;28;20471;-88
2021/04/29 17:28:12;;;;;;;5.90;2.60;;;19.70;81.30;;;;;;5032354;28;20040;-88
2021/04/29 17:37:53;;;;;;;6.22;2.50;;;19.00;81.70;;;;;;5031753;28;20060;-89
2021/04/29 17:43:42;;;;;;;5.57;2.75;;;18.60;82.10;;;;;;5032306;28;20067;-88
2021/04/29 17:49:30;;;;;;;7.78;2.70;;;18.20;82.30;;;;;;5032031;28;20032;-89
2021/04/29 17:55:19;;;;;;;7.07;2.97;;;18.00;82.70;;;;;;5032379;28;20036;-88
2021/04/29 18:01:08;;;;;;;8.68;3.10;;;17.70;83.40;;;;;;5031328;28;20036;-88
2021/04/29 18:06:56;;;;;;;7.35;3.38;;;17.60;83.50;;;;;;5031628;28;20423;-90
2021/04/29 18:12:45;;;;;;;9.85;3.72;;;17.40;83.40;;;;;;5031038;28;20082;-90
2021/04/29 18:18:33;;;;;;;8.35;3.85;;;17.20;83.80;;;;;;5031150;28;20194;-87
2021/04/29 18:24:29;;;;;;;9.23;3.90;;;17.00;83.60;;;;;;5031266;28;20033;-87
2021/04/29 18:30:24;;;;;;;9.25;3.80;;;16.80;83.90;;;;;;5030876;28;20077;-87
2021/04/29 18:40:08;;;;;;;8.63;3.85;;;16.30;84.00;;;;;;5031574;28;20149;-91
2021/04/29 18:45:57;;;;;;;9.23;3.70;;;16.00;83.80;;;;;;5031257;28;20097;-89
2021/04/29 18:51:47;;;;;;;8.43;3.42;;;15.70;84.10;;;;;;5030781;28;20082;-89
2021/04/29 18:57:35;;;;;;;8.35;3.35;;;15.50;84.60;;;;;;5031290;28;20159;-89
2021/04/29 19:03:23;;;;;;;7.78;3.70;;;15.30;84.90;;;;;;5031590;28;20043;-91
2021/04/29 19:09:14;;;;;;;7.70;3.42;;;15.20;85.30;;;;;;5031012;28;20442;-92
2021/04/29 19:15:08;;;;;;;6.78;3.20;;;15.10;85.50;;;;;;4974749;28;20100;-87
2021/04/29 19:20:58;;;;;;;7.15;3.20;;;14.90;85.30;;;;;;4974891;28;20030;-88
2021/04/29 20:48:44;;;;;;;11.18;3.95;;;12.50;86.10;;;;;;4976418;28;20085;-89
2021/04/29 20:54:32;;;;;;;8.68;4.45;;;12.40;86.80;;;;;;5015863;28;20053;-87
2021/04/29 21:00:22;;;;;;;8.90;3.88;;;12.20;86.20;;;;;;5015501;28;20033;-88
2021/04/29 21:06:11;;;;;;;7.95;4.05;;;12.10;86.30;;;;;;5015528;28;20052;-89
2021/04/29 21:12:00;;;;;;;9.27;3.92;;;12.00;86.40;;;;;;5021597;28;20033;-88
2021/04/29 21:17:50;;;;;;;11.30;4.00;;;11.90;86.40;;;;;;5030985;28;20053;-87
2021/04/29 21:23:39;;;;;;;8.95;4.45;;;11.80;86.40;;;;;;5020317;28;20040;-86
2021/04/29 21:29:28;;;;;;;8.65;3.88;;;11.70;86.50;;;;;;5019564;28;20037;-87
2021/04/29 21:35:17;;;;;;;8.02;4.10;;;11.60;86.80;;;;;;5015855;28;20154;-88
2021/04/29 21:41:06;;;;;;;9.70;4.25;;;11.60;87.30;;;;;;5015248;28;20033;-87
2021/04/29 21:46:54;;;;;;;8.80;3.42;;;11.70;87.50;;;;;;5015671;28;20028;-91
2021/04/29 21:52:44;;;;;;;9.30;4.18;;;11.60;87.20;;;;;;5015630;28;20033;-92
2021/04/29 21:58:33;;;;;;;12.48;5.40;;;11.60;87.50;;;;;;5017942;28;20041;-93
2021/04/29 22:04:22;;;;;;;11.40;5.10;;;11.60;87.50;;;;;;5014944;28;20028;-88
2021/04/29 22:10:11;;;;;;;11.20;5.50;;;11.60;87.20;;;;;;5014490;28;20029;-87
2021/04/29 22:16:00;;;;;;;11.10;5.28;;;11.50;87.00;;;;;;5014105;28;20118;-88
2021/04/29 22:21:49;;;;;;;12.00;5.57;;;11.30;86.90;;;;;;5014305;28;20072;-89
2021/04/29 22:27:39;;;;;;;10.82;5.55;;;11.20;86.90;;;;;;5014074;28;20032;-89
2021/04/29 22:33:27;;;;;;;8.02;4.32;;;11.00;86.80;;;;;;5018556;28;20068;-89
2021/04/29 22:43:04;;;;;;;10.57;4.88;;;10.80;86.70;;;;;;5014197;28;20093;-89
2021/04/29 22:48:53;;;;;;;8.85;4.65;;;10.60;86.70;;;;;;5013813;28;20033;-89
2021/04/29 22:54:42;;;;;;;9.82;5.07;;;10.40;86.60;;;;;;5014660;28;20125;-88
2021/04/29 23:00:31;;;;;;;10.85;4.68;;;10.30;86.60;;;;;;5013715;28;20032;-88
2021/04/29 23:06:20;;;;;;;11.38;5.63;;;10.10;86.60;;;;;;5013586;28;20088;-89
2021/04/29 23:12:09;;;;;;;8.77;4.38;;;10.00;86.70;;;;;;5013511;28;20100;-85
2021/04/29 23:17:57;;;;;;;11.98;5.60;;;9.80;86.50;;;;;;5013459;28;20049;-86
2021/04/29 23:23:46;;;;;;;11.40;5.30;;;9.70;86.50;;;;;;5013436;28;20029;-87
2021/04/29 23:29:35;;;;;;;6.45;3.40;;;9.50;86.40;;;;;;5013709;28;20036;-87
2021/04/29 23:35:27;;;;;;;9.13;4.07;;;9.40;86.70;;;;;;5013611;28;20040;-87
2021/04/29 23:45:13;;;;;;;10.27;4.85;;;9.20;86.70;;;;;;5013532;28;20117;-86
2021/04/29 23:51:02;;;;;;;14.88;6.18;;;9.00;86.50;;;;;;5013452;28;20065;-87
2021/04/29 23:56:51;;;;;;;11.43;5.47;;;8.90;86.40;;;;;;5013104;28;20080;-86
